weather.gov     
National Weather Service

Terminal Aerodrome Forecast
NWS Homepage
This page is being discontinued on March 12, 2014.
The same data is available at this site. Please update your bookmarks.
Thank you, and we apologize for the inconvenience.
Please send an email to SR-SRH.Webmaster@noaa.gov with any concerns.


Current Version
Previous Version:    01  02  03  04  05  06  07  08  09  10  11  12  13  14  15  16  17  18  19  20  21  22  23  24  25  26  27  28  29  30  
   31  32  33  34  35  36  37  38  39  40  41  42  43  44  45  46  47  48  49  50  51  
[Printable]
271
FTUS41 KRLX 261100
TAFHTS
TAF
KHTS 261135Z 2612/2712 01005KT 1SM -RA BR OVC002
     FM261300 33006KT 5SM -RAPLSN BR OVC012
     FM261400 33007KT 3SM -SN OVC010
     FM261500 31007KT 1SM -SN OVC005
     FM261800 30008KT 2SM -SN OVC008
     FM262000 31009KT 6SM -SN OVC015
     FM262300 31008KT 5SM -SN BKN015
     FM270400 32006KT 6SM -SN BKN018
     FM271000 34004KT P6SM BKN018=


U.S. Dept. of Commerce
NOAA National Weather Service
1325 East West Highway
Silver Spring, MD 20910
E-mail: w-nws.webmaster@noaa.gov
Page last modified: May 16, 2007
NATIONAL WEATHER SERVICE: for Safety, for Work, for Fun - FOR LIFE